world map with MOL marked

MOL - Airport

This information may not be accurate or current and is not valid for navigation or flight planning. No warranty of fitness for any purpose is made or implied.

flag of Norway

Donate via PayPal

Additional information is available on the NEW Great Circle Mapper

Location
City:  Molde, Møre og Romsdal, Norway
Name:Årø
ICAO / IATA:ENML / MOL

Details
Type:Airport (Aerodrome, Airfield)
Use:Public/Civil
Latitude:62°44'41"N (62.744722)
Longitude:7°15'45"E (7.262500)
Datum:other
Elevation:10 ft (3 m)
Runways:1
Longest:5253 × 148 ft (1601 × 45 m)

Time
Timezone:UTC+1 (DST+4)
Local Time:

Weather
METAR:ENML  041350Z 07008KT 030V090 CAVOK 00/M05 Q1007

Related Locations
Nearby:
Farthest:NZTB: 11433 mi / 18400 km
Terra Nova Bay [Mario Zucchelli Station], AQ

Find:

   beyond  
but within

Other Information
Maps:
Sources:

  


 


Great Circle Mapper   Great Circle Mapper
Great Circle Mapper FAQ   Great Circle Mapper FAQ
  Karl's Home Page
KLS²   KLS² Home
   GC on Facebook
Airlines of the World   Airlines of the World
Donate via PayPal


Copyright © 2004-2019, Karl L. Swartz. All rights reserved.
All trademarks mentioned herein belong to their respective owners.

Please see credits for attribution and copyright information.

Karl Swartz <karl@kls2.com>
  Powered by FreeBSD
Valid HTML 4.01!
Labeled with ICRA
hCard Microformat
Geo Microformat